createdAt,value
2023-01-11T00:00:25.850Z,12.40
2023-01-11T00:03:00.051Z,12.40
2023-01-11T00:05:27.086Z,12.40
2023-01-11T00:07:54.149Z,12.40
2023-01-11T00:10:21.318Z,12.50
2023-01-11T00:12:48.709Z,12.50
2023-01-11T00:15:16.104Z,12.50
2023-01-11T00:17:43.161Z,12.50
2023-01-11T00:20:10.741Z,12.50
2023-01-11T00:22:37.992Z,12.50
2023-01-11T00:25:05.322Z,12.50
2023-01-11T00:27:32.488Z,12.50
2023-01-11T00:29:59.388Z,12.50
2023-01-11T00:32:27.563Z,12.50
2023-01-11T00:34:54.713Z,12.50
2023-01-11T00:37:21.719Z,12.60
2023-01-11T00:39:48.807Z,12.50
2023-01-11T00:42:34.414Z,12.60
2023-01-11T00:45:19.807Z,12.60
2023-01-11T00:48:00.492Z,12.60
2023-01-11T00:50:29.642Z,12.60
2023-01-11T00:52:57.022Z,12.50
2023-01-11T00:55:24.170Z,12.60
2023-01-11T00:57:51.686Z,12.60
2023-01-11T01:00:19.523Z,12.70
2023-01-11T01:02:46.933Z,12.60
2023-01-11T01:05:14.161Z,12.70
2023-01-11T01:07:41.103Z,12.70
2023-01-11T01:10:08.663Z,12.60
2023-01-11T01:12:54.345Z,12.70
2023-01-11T01:15:21.523Z,12.70
2023-01-11T01:17:48.646Z,12.70
2023-01-11T01:20:16.039Z,12.70
2023-01-11T01:22:43.011Z,12.70
2023-01-11T01:25:10.295Z,12.70
2023-01-11T01:27:37.346Z,12.70
2023-01-11T01:30:05.441Z,12.70
2023-01-11T01:32:32.383Z,12.70
2023-01-11T01:34:59.297Z,12.70
2023-01-11T01:37:26.292Z,12.80
2023-01-11T01:39:53.244Z,12.80
2023-01-11T01:42:20.882Z,12.80
2023-01-11T01:44:47.994Z,12.80
2023-01-11T01:47:15.455Z,12.80
2023-01-11T01:49:43.333Z,12.80
2023-01-11T01:52:10.498Z,12.90
2023-01-11T01:54:39.750Z,12.90
2023-01-11T01:57:10.193Z,12.90
2023-01-11T01:59:37.460Z,12.90
2023-01-11T02:02:04.432Z,12.90
2023-01-11T02:04:34.066Z,12.90
2023-01-11T02:07:05.765Z,12.90
2023-01-11T02:09:37.203Z,12.90
2023-01-11T02:12:04.606Z,13.00
2023-01-11T02:14:32.100Z,13.00
2023-01-11T02:16:59.171Z,13.00
2023-01-11T02:19:29.392Z,13.00
2023-01-11T02:22:15.001Z,13.00
2023-01-11T02:25:00.625Z,13.00
2023-01-11T02:27:42.746Z,13.10
2023-01-11T02:30:09.736Z,13.00
2023-01-11T02:32:55.510Z,13.10
2023-01-11T02:35:32.477Z,13.20
2023-01-11T02:38:02.296Z,13.10
2023-01-11T02:40:35.340Z,13.10
2023-01-11T02:43:33.282Z,13.10
2023-01-11T02:46:06.391Z,13.10
2023-01-11T02:48:38.452Z,13.10
2023-01-11T02:51:08.601Z,13.10
2023-01-11T02:53:44.060Z,13.10
2023-01-11T02:56:16.952Z,13.10
2023-01-11T02:58:45.468Z,13.10
2023-01-11T03:01:13.117Z,13.10
2023-01-11T03:03:40.053Z,13.10
2023-01-11T03:06:17.904Z,13.20
2023-01-11T03:08:56.882Z,13.10
2023-01-11T03:12:01.117Z,13.20
2023-01-11T03:14:40.887Z,13.20
2023-01-11T03:17:18.033Z,13.20
2023-01-11T03:19:52.616Z,13.20
2023-01-11T03:22:19.540Z,13.20
2023-01-11T03:24:48.599Z,13.20
2023-01-11T03:27:39.233Z,13.20
2023-01-11T03:30:11.702Z,13.20
2023-01-11T03:32:38.797Z,13.30
2023-01-11T03:35:12.727Z,13.20
2023-01-11T03:37:50.578Z,13.20
2023-01-11T03:40:20.473Z,13.20
2023-01-11T03:43:07.855Z,13.30
2023-01-11T03:45:36.365Z,13.20
2023-01-11T03:48:04.614Z,13.20
2023-01-11T03:50:33.685Z,13.30
2023-01-11T03:53:02.164Z,13.20
2023-01-11T03:55:30.707Z,13.30
2023-01-11T03:57:58.252Z,13.30
2023-01-11T04:00:26.155Z,13.30
2023-01-11T04:02:54.252Z,13.30
2023-01-11T04:05:21.346Z,13.20
2023-01-11T04:07:48.254Z,13.20
2023-01-11T04:10:15.328Z,13.20
2023-01-11T04:12:42.286Z,13.10
2023-01-11T04:15:09.683Z,13.10
2023-01-11T04:17:36.610Z,13.10
2023-01-11T04:20:03.621Z,13.10
2023-01-11T04:22:30.539Z,13.10
2023-01-11T04:24:57.383Z,13.10
2023-01-11T04:27:24.326Z,13.10
2023-01-11T04:29:51.378Z,13.10
2023-01-11T04:32:18.439Z,13.10
2023-01-11T04:34:45.340Z,13.10
2023-01-11T04:37:12.306Z,13.10
2023-01-11T04:39:39.172Z,13.10
2023-01-11T04:42:21.760Z,13.10
2023-01-11T04:44:49.293Z,13.10
2023-01-11T04:47:16.833Z,13.10
2023-01-11T04:49:43.874Z,13.10
2023-01-11T04:52:11.689Z,13.10
2023-01-11T04:54:39.150Z,13.10
2023-01-11T04:57:08.756Z,13.10
2023-01-11T04:59:35.624Z,13.10
2023-01-11T05:02:02.671Z,13.00
2023-01-11T05:04:29.840Z,13.00
2023-01-11T05:06:56.876Z,13.00
2023-01-11T05:09:23.806Z,13.00
2023-01-11T05:11:52.855Z,13.10
2023-01-11T05:14:19.797Z,13.00
2023-01-11T05:16:46.712Z,13.00
2023-01-11T05:19:13.864Z,13.00
2023-01-11T05:21:41.510Z,13.10
2023-01-11T05:24:13.290Z,13.00
2023-01-11T05:26:40.885Z,13.00
2023-01-11T05:29:09.055Z,13.00
2023-01-11T05:31:36.639Z,13.10
2023-01-11T05:34:03.883Z,13.00
2023-01-11T05:36:30.723Z,13.00
2023-01-11T05:38:57.740Z,13.10
2023-01-11T05:41:25.912Z,13.00
2023-01-11T05:44:12.001Z,13.10
2023-01-11T05:46:39.549Z,13.00
2023-01-11T05:49:07.120Z,13.00
2023-01-11T05:51:34.754Z,13.00
2023-01-11T05:54:02.493Z,13.00
2023-01-11T05:56:29.748Z,13.00
2023-01-11T05:58:56.763Z,13.00
2023-01-11T06:01:24.352Z,13.00
2023-01-11T06:03:51.348Z,12.90
2023-01-11T06:06:18.872Z,12.90
2023-01-11T06:08:45.958Z,12.90
2023-01-11T06:11:13.066Z,12.90
2023-01-11T06:13:39.940Z,12.90
2023-01-11T06:16:08.353Z,12.90
2023-01-11T06:18:36.305Z,12.80
2023-01-11T06:21:03.952Z,12.80
2023-01-11T06:23:31.614Z,12.90
2023-01-11T06:26:01.257Z,12.80
2023-01-11T06:28:28.349Z,12.80
2023-01-11T06:30:56.366Z,12.80
2023-01-11T06:33:25.498Z,12.80
2023-01-11T06:35:58.869Z,12.70
2023-01-11T06:38:26.099Z,12.80
2023-01-11T06:40:54.254Z,12.70
2023-01-11T06:43:21.765Z,12.80
2023-01-11T06:45:48.935Z,12.70
2023-01-11T06:48:16.749Z,12.70
2023-01-11T06:50:44.063Z,12.70
2023-01-11T06:53:10.940Z,12.60
2023-01-11T06:55:38.096Z,12.70
2023-01-11T06:58:05.145Z,12.60
2023-01-11T07:00:33.421Z,12.60
2023-01-11T07:03:05.051Z,12.60
2023-01-11T07:05:32.660Z,12.60
2023-01-11T07:07:59.630Z,12.60
2023-01-11T07:10:26.517Z,12.60
2023-01-11T07:12:53.813Z,12.60
2023-01-11T07:15:20.729Z,12.60
2023-01-11T07:17:49.634Z,12.60
2023-01-11T07:20:16.776Z,12.50
2023-01-11T07:22:43.697Z,12.50
2023-01-11T07:25:10.635Z,12.50
2023-01-11T07:27:37.585Z,12.50
2023-01-11T07:30:04.649Z,12.50
2023-01-11T07:32:31.619Z,12.40
2023-01-11T07:34:58.605Z,12.40
2023-01-11T07:37:28.960Z,12.40
2023-01-11T07:39:56.392Z,12.40
2023-01-11T07:42:41.965Z,12.30
2023-01-11T07:45:09.098Z,12.40
2023-01-11T07:47:36.030Z,12.30
2023-01-11T07:50:03.038Z,12.30
2023-01-11T07:52:29.961Z,12.30
2023-01-11T07:55:02.626Z,12.20
2023-01-11T07:57:30.546Z,12.20
2023-01-11T07:59:57.563Z,12.20
2023-01-11T08:02:24.591Z,12.20
2023-01-11T08:04:51.653Z,12.20
2023-01-11T08:07:18.613Z,12.10
2023-01-11T08:09:45.562Z,12.10
2023-01-11T08:12:31.187Z,12.10
2023-01-11T08:14:58.087Z,12.10
2023-01-11T08:17:25.134Z,12.00
2023-01-11T08:19:52.144Z,12.00
2023-01-11T08:22:19.168Z,12.00
2023-01-11T08:24:46.267Z,11.90
2023-01-11T08:27:13.358Z,11.90
2023-01-11T08:29:44.151Z,11.90
2023-01-11T08:32:11.682Z,11.90
2023-01-11T08:34:38.859Z,11.80
2023-01-11T08:37:05.818Z,11.80
2023-01-11T08:39:33.002Z,11.80
2023-01-11T08:42:00.179Z,11.70
2023-01-11T08:44:34.152Z,11.70
2023-01-11T08:47:01.852Z,11.60
2023-01-11T08:49:30.727Z,11.60
2023-01-11T08:51:57.784Z,11.60
2023-01-11T08:54:25.310Z,11.50
2023-01-11T08:56:52.253Z,11.50
2023-01-11T08:59:20.231Z,11.40
2023-01-11T09:01:47.471Z,11.40
2023-01-11T09:04:24.177Z,11.40
2023-01-11T09:06:53.379Z,11.40
2023-01-11T09:09:20.322Z,11.30
2023-01-11T09:12:01.063Z,11.30
2023-01-11T09:14:28.720Z,11.20
2023-01-11T09:16:56.387Z,11.20
2023-01-11T09:19:23.458Z,11.20
2023-01-11T09:21:51.360Z,11.10
2023-01-11T09:24:18.346Z,11.10
2023-01-11T09:26:45.370Z,11.10
2023-01-11T09:29:12.468Z,11.10
2023-01-11T09:31:39.528Z,11.10
2023-01-11T09:34:07.482Z,11.10
2023-01-11T09:36:36.368Z,11.00
2023-01-11T09:39:07.802Z,11.10
2023-01-11T09:41:51.175Z,11.10
2023-01-11T09:44:21.577Z,11.10
2023-01-11T09:46:51.544Z,11.20
2023-01-11T09:49:20.447Z,11.20
2023-01-11T09:51:48.150Z,11.20
2023-01-11T09:54:18.229Z,11.30
2023-01-11T09:56:53.916Z,11.30
2023-01-11T09:59:47.069Z,11.40
2023-01-11T10:02:38.527Z,11.40
2023-01-11T10:05:23.773Z,11.40
2023-01-11T10:18:30.185Z,11.50
2023-01-11T10:19:45.923Z,11.60
2023-01-11T10:22:32.987Z,11.60
2023-01-11T10:25:17.057Z,11.70
2023-01-11T10:27:56.977Z,11.70
2023-01-11T10:30:32.552Z,11.70
2023-01-11T10:33:10.125Z,11.70
2023-01-11T10:35:58.293Z,11.80
2023-01-11T10:38:51.647Z,11.80
2023-01-11T10:41:26.424Z,11.80
2023-01-11T10:44:00.298Z,11.80
2023-01-11T10:46:27.344Z,11.90
2023-01-11T10:49:00.910Z,11.90
2023-01-11T10:51:30.105Z,12.00
2023-01-11T10:54:22.449Z,12.00
2023-01-11T10:57:09.154Z,12.00
2023-01-11T10:59:56.488Z,12.00
2023-01-11T11:02:32.491Z,12.00
2023-01-11T11:04:59.551Z,12.10
2023-01-11T11:07:34.895Z,12.00
2023-01-11T11:10:22.031Z,12.10
2023-01-11T11:12:54.795Z,12.10
2023-01-11T11:15:25.525Z,12.20
2023-01-11T11:17:53.316Z,12.20
2023-01-11T11:20:21.811Z,12.30
2023-01-11T11:22:52.737Z,12.30
2023-01-11T11:25:27.764Z,12.40
2023-01-11T11:28:15.095Z,12.40
2023-01-11T11:30:43.377Z,12.40
2023-01-11T11:33:17.149Z,12.40
2023-01-11T11:35:46.541Z,12.50
2023-01-11T11:38:24.139Z,12.60
2023-01-11T11:41:11.407Z,12.60
2023-01-11T11:43:39.153Z,12.70
2023-01-11T11:46:19.516Z,12.70
2023-01-11T11:49:09.999Z,12.80
2023-01-11T11:51:37.118Z,12.80
2023-01-11T11:54:05.115Z,12.80
2023-01-11T11:56:35.719Z,12.70
2023-01-11T11:59:07.688Z,12.80
2023-01-11T12:01:40.183Z,12.80
2023-01-11T12:04:19.529Z,12.80
2023-01-11T12:07:04.832Z,12.70
2023-01-11T12:09:33.033Z,12.70
2023-01-11T12:12:00.600Z,12.70
2023-01-11T12:14:29.104Z,12.80
2023-01-11T12:16:57.417Z,12.80
2023-01-11T12:19:27.302Z,12.80
2023-01-11T12:22:09.265Z,12.90
2023-01-11T12:24:36.448Z,12.90
2023-01-11T12:27:22.160Z,13.00
2023-01-11T12:30:14.680Z,12.90
2023-01-11T12:32:51.114Z,12.90
2023-01-11T12:35:20.887Z,12.90
2023-01-11T12:38:06.734Z,12.90
2023-01-11T12:40:41.054Z,12.80
2023-01-11T12:43:31.140Z,12.90
2023-01-11T12:46:18.252Z,12.90
2023-01-11T12:49:14.490Z,12.90
2023-01-11T12:51:44.226Z,12.80
2023-01-11T12:54:20.335Z,12.80
2023-01-11T12:56:59.287Z,12.80
2023-01-11T12:59:29.070Z,12.80
2023-01-11T13:01:56.012Z,12.80
2023-01-11T13:04:41.922Z,12.70
2023-01-11T13:07:11.750Z,12.70
2023-01-11T13:09:52.208Z,12.70
2023-01-11T13:12:27.691Z,12.60
2023-01-11T13:15:02.960Z,12.60
2023-01-11T13:17:48.581Z,12.60
2023-01-11T13:20:15.485Z,12.60
2023-01-11T13:22:45.630Z,12.70
2023-01-11T13:25:32.829Z,12.70
2023-01-11T13:28:01.229Z,12.70
2023-01-11T13:30:28.721Z,12.70
2023-01-11T13:33:03.309Z,12.60
2023-01-11T13:35:51.960Z,12.60
2023-01-11T13:38:34.686Z,12.60
2023-01-11T13:41:12.882Z,12.60
2023-01-11T13:43:42.892Z,12.70
2023-01-11T13:46:17.133Z,12.60
2023-01-11T13:48:52.659Z,12.60
2023-01-11T13:51:34.801Z,12.50
2023-01-11T13:54:04.742Z,12.60
2023-01-11T13:56:34.194Z,12.60
2023-01-11T13:59:20.111Z,12.70
2023-01-11T14:01:47.070Z,12.70
2023-01-11T14:04:18.103Z,12.80
2023-01-11T14:06:59.694Z,12.80
2023-01-11T14:09:45.475Z,12.80
2023-01-11T14:12:12.370Z,12.80
2023-01-11T14:15:09.065Z,12.80
2023-01-11T14:17:47.937Z,12.90
2023-01-11T14:20:20.499Z,12.90
2023-01-11T14:22:47.630Z,12.90
2023-01-11T14:25:28.123Z,13.00
2023-01-11T14:28:13.303Z,12.90
2023-01-11T14:30:58.573Z,12.90
2023-01-11T14:33:35.146Z,12.80
2023-01-11T14:36:17.325Z,12.80
2023-01-11T14:39:02.869Z,12.70
2023-01-11T14:41:32.639Z,12.70
2023-01-11T14:44:15.389Z,12.60
2023-01-11T14:47:03.991Z,12.50
2023-01-11T14:49:56.541Z,12.40
2023-01-11T14:52:39.122Z,12.40
2023-01-11T14:55:19.497Z,12.30
2023-01-11T14:57:52.368Z,12.30
2023-01-11T15:00:19.183Z,12.20
2023-01-11T15:02:47.012Z,12.20
2023-01-11T15:05:33.073Z,12.10
2023-01-11T15:08:15.301Z,12.10
2023-01-11T15:10:45.203Z,12.10
2023-01-11T15:13:14.096Z,12.00
2023-01-11T15:15:59.631Z,12.00
2023-01-11T15:18:27.328Z,12.00
2023-01-11T15:20:58.498Z,12.00
2023-01-11T15:23:26.092Z,11.90
2023-01-11T15:26:00.662Z,11.90
2023-01-11T15:28:46.417Z,11.90
2023-01-11T15:31:28.768Z,11.90
2023-01-11T15:33:55.840Z,11.90
2023-01-11T15:36:26.087Z,11.80
2023-01-11T15:38:57.624Z,11.90
2023-01-11T15:42:02.435Z,12.00
2023-01-11T15:44:38.380Z,12.10
2023-01-11T15:47:05.793Z,12.20
2023-01-11T15:49:38.573Z,12.30
2023-01-11T15:52:24.254Z,12.30
2023-01-11T15:55:09.985Z,12.30
2023-01-11T15:57:57.279Z,12.40
2023-01-11T16:00:24.345Z,12.30
2023-01-11T16:03:09.922Z,12.40
2023-01-11T16:05:40.743Z,12.40
2023-01-11T16:08:19.770Z,12.40
2023-01-11T16:11:03.215Z,12.40
2023-01-11T16:13:49.049Z,12.30
2023-01-11T16:16:23.898Z,12.30
2023-01-11T16:18:55.640Z,12.30
2023-01-11T16:21:36.267Z,12.30
2023-01-11T16:24:07.607Z,12.20
2023-01-11T16:26:35.961Z,12.10
2023-01-11T16:29:07.622Z,12.00
2023-01-11T16:31:53.580Z,12.00
2023-01-11T16:34:20.484Z,11.90
2023-01-11T16:36:50.031Z,11.90
2023-01-11T16:39:21.011Z,11.90
2023-01-11T16:48:27.437Z,11.70
2023-01-11T16:48:40.924Z,11.80
2023-01-11T16:51:00.417Z,11.70
2023-01-11T16:53:28.432Z,11.70
2023-01-11T16:55:58.099Z,11.70
2023-01-11T16:58:25.781Z,11.70
2023-01-11T17:00:57.421Z,11.60
2023-01-11T17:03:29.029Z,11.60
2023-01-11T17:06:02.232Z,11.60
2023-01-11T17:08:30.882Z,11.50
2023-01-11T17:11:00.503Z,11.50
2023-01-11T17:13:51.958Z,11.50
2023-01-11T17:16:19.950Z,11.50
2023-01-11T17:18:47.101Z,11.40
2023-01-11T17:21:22.381Z,11.40
2023-01-11T17:23:55.297Z,11.40
2023-01-11T17:26:30.265Z,11.40
2023-01-11T17:28:58.825Z,11.40
2023-01-11T17:31:31.169Z,11.40
2023-01-11T17:34:01.271Z,11.40
2023-01-11T17:36:28.485Z,11.30
2023-01-11T17:38:57.923Z,11.40
2023-01-11T17:41:47.255Z,11.40
2023-01-11T17:44:40.348Z,11.40
2023-01-11T17:47:12.453Z,11.40
2023-01-11T17:49:39.693Z,11.40
2023-01-11T17:52:18.958Z,11.40
2023-01-11T17:54:46.214Z,11.40
2023-01-11T17:57:16.896Z,11.40
2023-01-11T17:59:43.897Z,11.40
2023-01-11T18:02:10.819Z,11.50
2023-01-11T18:04:47.187Z,11.40
2023-01-11T18:07:14.304Z,11.40
2023-01-11T18:09:45.300Z,11.40
2023-01-11T18:12:14.422Z,11.40
2023-01-11T18:14:50.791Z,11.30
2023-01-11T18:17:29.815Z,11.40
2023-01-11T18:19:57.398Z,11.40
2023-01-11T18:22:24.278Z,11.30
2023-01-11T18:24:55.120Z,11.40
2023-01-11T18:27:26.704Z,11.40
2023-01-11T18:29:54.853Z,11.40
2023-01-11T18:32:21.888Z,11.40
2023-01-11T18:34:51.081Z,11.40
2023-01-11T18:37:18.387Z,11.40
2023-01-11T18:39:45.454Z,11.40
2023-01-11T18:42:15.659Z,11.40
2023-01-11T18:44:43.879Z,11.40
2023-01-11T18:47:23.390Z,11.50
2023-01-11T18:49:50.972Z,11.40
2023-01-11T18:52:18.869Z,11.50
2023-01-11T18:54:46.167Z,11.50
2023-01-11T18:57:13.165Z,11.50
2023-01-11T18:59:40.227Z,11.50
2023-01-11T19:02:16.528Z,11.50
2023-01-11T19:04:44.629Z,11.40
2023-01-11T19:07:11.663Z,11.40
2023-01-11T19:09:38.715Z,11.40
2023-01-11T19:12:06.139Z,11.40
2023-01-11T19:14:33.111Z,11.50
2023-01-11T19:17:00.122Z,11.50
2023-01-11T19:19:27.114Z,11.50
2023-01-11T19:21:54.128Z,11.50
2023-01-11T19:24:20.990Z,11.50
2023-01-11T19:26:48.189Z,11.50
2023-01-11T19:29:17.980Z,11.50
2023-01-11T19:31:45.670Z,11.50
2023-01-11T19:34:13.059Z,11.50
2023-01-11T19:36:40.374Z,11.60
2023-01-11T19:39:08.563Z,11.60
2023-01-11T19:41:54.278Z,11.50
2023-01-11T19:44:21.691Z,11.70
2023-01-11T19:46:53.115Z,11.60
2023-01-11T19:49:27.868Z,11.60
2023-01-11T19:51:54.806Z,11.60
2023-01-11T19:54:22.223Z,11.60
2023-01-11T19:56:52.280Z,11.60
2023-01-11T19:59:19.635Z,11.60
2023-01-11T20:01:47.312Z,11.60
2023-01-11T20:04:16.539Z,11.60
2023-01-11T20:06:50.578Z,11.50
2023-01-11T20:09:21.564Z,11.50
2023-01-11T20:11:53.403Z,11.40
2023-01-11T20:14:20.491Z,11.40
2023-01-11T20:16:47.537Z,11.50
2023-01-11T20:19:15.320Z,11.50
2023-01-11T20:21:42.427Z,11.50
2023-01-11T20:24:12.060Z,11.50
2023-01-11T20:26:39.281Z,11.60
2023-01-11T20:29:06.670Z,11.50
2023-01-11T20:31:35.643Z,11.50
2023-01-11T20:34:06.679Z,11.50
2023-01-11T20:36:33.725Z,11.70
2023-01-11T20:39:00.643Z,11.70
2023-01-11T20:41:46.336Z,11.60
2023-01-11T20:44:14.742Z,11.60
2023-01-11T20:46:42.021Z,11.60
2023-01-11T20:49:09.040Z,11.50
2023-01-11T20:51:36.706Z,11.70
2023-01-11T20:54:04.852Z,11.60
2023-01-11T20:56:33.362Z,11.70
2023-01-11T20:59:01.293Z,11.50
2023-01-11T21:01:28.847Z,11.40
2023-01-11T21:03:58.288Z,11.30
2023-01-11T21:06:25.229Z,11.30
2023-01-11T21:08:56.377Z,11.20
2023-01-11T21:11:23.418Z,11.20
2023-01-11T21:16:24.826Z,11.10
2023-01-11T21:18:58.795Z,11.10
2023-01-11T21:21:26.251Z,11.10
2023-01-11T21:23:57.087Z,10.90
2023-01-11T21:26:24.916Z,10.80
2023-01-11T21:28:53.443Z,10.90
2023-01-11T21:31:24.020Z,10.80
2023-01-11T21:33:51.077Z,10.80
2023-01-11T21:36:19.488Z,10.80
2023-01-11T21:38:46.555Z,10.70
2023-01-11T21:41:14.625Z,10.70
2023-01-11T21:43:45.201Z,10.70
2023-01-11T21:46:12.871Z,10.60
2023-01-11T21:48:43.924Z,10.60
2023-01-11T21:51:10.907Z,10.60
2023-01-11T21:53:38.161Z,10.50
2023-01-11T21:56:08.355Z,10.50
2023-01-11T21:58:35.622Z,10.50
2023-01-11T22:01:09.776Z,10.50
2023-01-11T22:03:36.907Z,10.40
2023-01-11T22:06:04.349Z,10.40
2023-01-11T22:08:34.422Z,10.40
2023-01-11T22:11:02.371Z,10.40
2023-01-11T22:13:29.767Z,10.40
2023-01-11T22:16:13.551Z,10.40
2023-01-11T22:18:41.578Z,10.40
2023-01-11T22:21:12.890Z,10.40
2023-01-11T22:23:40.509Z,10.40
2023-01-11T22:26:11.880Z,10.40
2023-01-11T22:28:57.658Z,10.50
2023-01-11T22:31:25.353Z,10.50
2023-01-11T22:33:52.512Z,10.50
2023-01-11T22:36:19.561Z,10.40
2023-01-11T22:38:47.237Z,10.40
2023-01-11T22:41:15.171Z,10.40
2023-01-11T22:43:43.276Z,10.40
2023-01-11T22:46:12.742Z,10.50
2023-01-11T22:48:39.832Z,10.50
2023-01-11T22:51:07.563Z,10.50
2023-01-11T22:53:37.990Z,10.40
2023-01-11T22:56:05.477Z,10.40
2023-01-11T22:58:32.392Z,10.50
2023-01-11T23:00:59.334Z,10.40
2023-01-11T23:03:26.318Z,10.40
2023-01-11T23:05:53.366Z,10.50
2023-01-11T23:08:20.381Z,10.50
2023-01-11T23:10:47.324Z,10.50
2023-01-11T23:13:43.572Z,10.50
2023-01-11T23:16:10.573Z,10.50
2023-01-11T23:18:37.541Z,10.60
2023-01-11T23:21:05.425Z,10.50
2023-01-11T23:23:32.490Z,10.50
2023-01-11T23:25:59.501Z,10.60
2023-01-11T23:28:30.040Z,10.70
2023-01-11T23:30:56.985Z,10.60
2023-01-11T23:33:23.955Z,10.70
2023-01-11T23:35:57.960Z,10.60
2023-01-11T23:38:24.973Z,10.70
2023-01-11T23:41:10.591Z,10.70
2023-01-11T23:43:41.081Z,10.70
2023-01-11T23:46:26.350Z,10.70
2023-01-11T23:48:53.229Z,10.60
2023-01-11T23:51:20.134Z,10.60
2023-01-11T23:53:47.060Z,10.60
2023-01-11T23:56:14.084Z,10.70
2023-01-11T23:58:40.968Z,10.70
